Time;durP1;ratioP1;P1;durP2;ratioP2;P2;SDS_P1;SDS_P2;PMS_P1;PMS_P2;Temp;Humidity;BMP_temperature;BMP_pressure;BME280_temperature;BME280_humidity;BME280_pressure;Samples;Min_cycle;Max_cycle;Signal;HPM_P1;HPM_P2
2021/10/07 00:01:45;;;;;;;26.83;9.82;;;;;;;12.34;100.00;102356.81;5223830;28;20395;-76
2021/10/07 00:04:16;;;;;;;37.85;10.15;;;;;;;12.38;100.00;102360.91;5225349;28;20063;-76
2021/10/07 00:06:47;;;;;;;33.03;9.70;;;;;;;12.36;100.00;102371.84;5225395;28;20433;-76
2021/10/07 00:09:17;;;;;;;31.40;8.85;;;;;;;12.36;100.00;102368.31;5225527;28;20040;-77
2021/10/07 00:11:48;;;;;;;29.15;8.13;;;;;;;12.36;100.00;102373.69;5225380;28;20082;-74
2021/10/07 00:14:19;;;;;;;46.30;10.52;;;;;;;12.33;100.00;102372.09;5225423;28;20024;-75
2021/10/07 00:16:50;;;;;;;38.95;8.00;;;;;;;12.34;100.00;102372.97;5224970;28;20028;-75
2021/10/07 00:19:20;;;;;;;35.03;8.25;;;;;;;12.36;100.00;102376.38;5224706;28;20087;-76
2021/10/07 00:21:51;;;;;;;32.15;7.82;;;;;;;12.32;100.00;102372.25;5225011;28;20029;-76
2021/10/07 00:24:22;;;;;;;36.88;8.25;;;;;;;12.29;100.00;102368.00;5239939;28;20029;-75
2021/10/07 00:26:52;;;;;;;34.35;8.18;;;;;;;12.26;100.00;102373.69;5224495;28;20044;-75
2021/10/07 00:32:09;;;;;;;29.00;6.72;;;;;;;12.35;100.00;102370.16;5224901;28;20100;-76
2021/10/07 00:39:54;;;;;;;31.67;6.63;;;;;;;12.18;100.00;102389.66;5224573;28;20032;-75
2021/10/07 00:42:24;;;;;;;32.83;6.70;;;;;;;12.23;100.00;102390.09;5224586;28;20029;-75
2021/10/07 00:44:54;;;;;;;37.38;7.05;;;;;;;12.22;100.00;102388.38;5224761;28;20017;-76
2021/10/07 00:47:25;;;;;;;36.97;6.25;;;;;;;12.21;100.00;102391.22;5223950;28;20025;-75
2021/10/07 00:49:56;;;;;;;38.90;6.10;;;;;;;12.13;100.00;102398.13;5223126;28;20028;-74
2021/10/07 00:52:26;;;;;;;30.13;5.78;;;;;;;12.15;100.00;102400.72;5224477;28;20037;-74
2021/10/07 00:54:57;;;;;;;35.80;6.07;;;;;;;12.11;100.00;102405.50;5223916;28;20029;-74
2021/10/07 00:57:28;;;;;;;26.40;5.53;;;;;;;12.12;100.00;102406.34;5223555;28;20029;-73
2021/10/07 00:59:58;;;;;;;34.88;5.78;;;;;;;12.08;100.00;102408.47;5223654;28;20486;-76
2021/10/07 01:02:29;;;;;;;24.27;5.85;;;;;;;12.10;100.00;102416.41;5224206;28;20028;-75
2021/10/07 01:05:00;;;;;;;35.97;7.63;;;;;;;12.07;100.00;102412.16;5224358;28;20070;-75
2021/10/07 01:07:30;;;;;;;37.75;7.13;;;;;;;12.03;100.00;102413.41;5224729;28;20032;-74
2021/10/07 01:10:01;;;;;;;35.03;6.22;;;;;;;11.99;100.00;102411.97;5224174;28;20037;-74
2021/10/07 01:12:31;;;;;;;29.85;5.72;;;;;;;11.97;100.00;102419.34;5224301;28;20555;-75
2021/10/07 01:15:02;;;;;;;29.88;5.57;;;;;;;11.97;100.00;102413.13;5224816;28;20021;-75
2021/10/07 01:17:33;;;;;;;25.13;5.70;;;;;;;11.93;100.00;102417.91;5224132;28;20029;-74
2021/10/07 01:20:06;;;;;;;28.42;5.90;;;;;;;11.98;100.00;102412.13;5223755;28;20468;-75
2021/10/07 01:22:36;;;;;;;32.17;5.72;;;;;;;11.95;100.00;102421.34;5224057;28;20044;-74
2021/10/07 01:25:07;;;;;;;31.15;6.38;;;;;;;11.89;100.00;102421.84;5223940;28;20029;-77
2021/10/07 01:27:38;;;;;;;30.40;7.53;;;;;;;11.85;100.00;102426.69;5223055;28;20375;-75
2021/10/07 01:30:11;;;;;;;27.02;6.10;;;;;;;11.85;100.00;102426.69;5224498;28;20029;-75
2021/10/07 01:32:43;;;;;;;29.55;6.15;;;;;;;11.78;100.00;102432.69;5223950;28;20425;-74
2021/10/07 01:35:13;;;;;;;28.23;7.60;;;;;;;11.77;100.00;102431.00;5223535;28;20401;-76
2021/10/07 01:37:44;;;;;;;37.78;7.30;;;;;;;11.78;100.00;102430.84;5255644;28;20497;-75
2021/10/07 01:40:15;;;;;;;27.70;6.63;;;;;;;11.74;100.00;102436.63;5222413;28;20028;-75
2021/10/07 01:42:45;;;;;;;32.22;7.25;;;;;;;11.75;100.00;102441.88;5223730;28;20475;-76
2021/10/07 01:45:17;;;;;;;28.52;6.53;;;;;;;11.72;100.00;102436.78;5223456;28;20025;-75
2021/10/07 01:47:48;;;;;;;32.83;6.45;;;;;;;11.70;100.00;102437.88;5223230;28;20029;-75
2021/10/07 01:50:18;;;;;;;30.20;6.35;;;;;;;11.75;100.00;102441.88;5223017;28;20073;-75
2021/10/07 01:52:50;;;;;;;23.30;6.32;;;;;;;11.73;100.00;102434.94;5223453;28;20098;-76
2021/10/07 01:55:21;;;;;;;33.08;6.00;;;;;;;11.73;100.00;102443.00;5222924;28;20403;-75
2021/10/07 01:57:52;;;;;;;26.55;6.30;;;;;;;11.70;100.00;102446.81;5223370;28;20021;-75
2021/10/07 02:00:23;;;;;;;28.63;6.20;;;;;;;11.66;100.00;102448.91;5221246;28;20070;-76
2021/10/07 02:02:54;;;;;;;29.77;6.57;;;;;;;11.62;100.00;102441.25;5221928;28;20017;-75
2021/10/07 02:05:26;;;;;;;28.00;6.47;;;;;;;11.60;100.00;102437.88;5222748;28;20498;-74
2021/10/07 02:07:56;;;;;;;31.67;6.65;;;;;;;11.61;100.00;102450.31;5223181;28;20052;-75
2021/10/07 02:10:27;;;;;;;31.48;6.93;;;;;;;11.59;100.00;102447.72;5221196;28;20092;-76
2021/10/07 02:13:06;;;;;;;27.92;6.53;;;;;;;11.60;100.00;102452.16;5222806;28;20021;-76
2021/10/07 02:15:37;;;;;;;51.25;7.30;;;;;;;11.63;100.00;102453.69;5221712;28;20399;-75
2021/10/07 02:18:07;;;;;;;39.75;6.28;;;;;;;11.61;100.00;102448.47;5223130;28;20025;-76
2021/10/07 02:20:38;;;;;;;24.85;5.93;;;;;;;11.57;100.00;102449.72;5237919;28;20491;-74
2021/10/07 02:23:09;;;;;;;27.42;5.60;;;;;;;11.64;100.00;102453.56;5222618;28;20490;-76
2021/10/07 02:25:39;;;;;;;27.52;6.15;;;;;;;11.55;100.00;102454.38;5222655;28;20116;-76
2021/10/07 02:28:10;;;;;;;25.23;6.45;;;;;;;11.55;100.00;102456.22;5222531;28;20024;-74
2021/10/07 02:30:41;;;;;;;33.00;6.90;;;;;;;11.51;100.00;102455.63;5222376;28;20429;-77
2021/10/07 02:33:12;;;;;;;27.20;5.25;;;;;;;11.50;100.00;102455.78;5222477;28;20039;-76
2021/10/07 02:35:43;;;;;;;27.38;6.25;;;;;;;11.48;100.00;102463.09;5220814;28;20040;-76
2021/10/07 02:38:13;;;;;;;29.98;6.13;;;;;;;11.47;100.00;102464.09;5222313;28;20025;-75
2021/10/07 02:40:44;;;;;;;22.05;5.47;;;;;;;11.50;100.00;102467.38;5221701;28;20033;-75
2021/10/07 02:43:14;;;;;;;29.13;6.60;;;;;;;11.45;100.00;102461.56;5221096;28;20029;-74
2021/10/07 02:45:45;;;;;;;33.88;6.40;;;;;;;11.43;100.00;102468.88;5222128;28;20013;-75
2021/10/07 02:48:15;;;;;;;34.83;7.28;;;;;;;11.41;100.00;102469.00;5222101;28;20524;-75
2021/10/07 02:50:46;;;;;;;34.83;6.53;;;;;;;11.38;100.00;102471.09;5221796;28;20113;-75
2021/10/07 02:53:17;;;;;;;23.55;6.10;;;;;;;11.36;100.00;102471.25;5222553;28;20028;-75
2021/10/07 02:55:47;;;;;;;28.27;6.13;;;;;;;11.35;100.00;102472.25;5222205;28;20021;-75
2021/10/07 02:58:18;;;;;;;24.38;6.30;;;;;;;11.36;100.00;102478.47;5237850;28;20470;-74
2021/10/07 03:00:48;;;;;;;24.13;5.90;;;;;;;11.32;100.00;102475.19;5221609;28;20501;-75
2021/10/07 03:03:19;;;;;;;34.92;6.95;;;;;;;11.29;100.00;102471.88;5221944;28;20182;-75
2021/10/07 03:05:49;;;;;;;26.35;6.32;;;;;;;11.27;100.00;102490.00;5220990;28;20013;-75
2021/10/07 03:08:27;;;;;;;22.25;6.43;;;;;;;11.22;100.00;102481.47;5222248;28;20084;-76
2021/10/07 03:10:58;;;;;;;30.48;6.05;;;;;;;11.14;100.00;102484.78;5221544;28;20033;-75
2021/10/07 03:13:29;;;;;;;22.45;6.03;;;;;;;11.04;100.00;102484.72;5221971;28;20090;-76
2021/10/07 03:15:59;;;;;;;20.42;5.55;;;;;;;10.96;100.00;102491.75;5221859;28;20116;-77
2021/10/07 03:18:30;;;;;;;24.50;5.97;;;;;;;10.84;100.00;102488.22;5203346;28;20036;-75
2021/10/07 03:21:00;;;;;;;24.30;6.78;;;;;;;10.75;100.00;102489.00;5203654;28;20021;-76
2021/10/07 03:23:31;;;;;;;32.03;7.22;;;;;;;10.69;100.00;102484.97;5221582;28;20071;-75
2021/10/07 03:26:01;;;;;;;17.17;5.63;;;;;;;10.66;100.00;102496.00;5221744;28;20474;-75
2021/10/07 03:28:32;;;;;;;25.65;8.13;;;;;;;10.70;100.00;102500.13;5221644;28;20055;-74
2021/10/07 03:31:02;;;;;;;28.48;6.55;;;;;;;10.67;100.00;102504.88;5221597;28;20047;-74
2021/10/07 03:33:33;;;;;;;23.55;6.22;;;;;;;10.59;100.00;102506.38;5220532;28;20104;-74
2021/10/07 03:36:03;;;;;;;25.50;6.45;;;;;;;10.52;100.00;102496.28;5221213;28;20697;-75
2021/10/07 03:38:34;;;;;;;25.50;6.18;;;;;;;10.46;100.00;102507.50;5221835;28;20052;-74
2021/10/07 03:41:04;;;;;;;17.35;5.50;;;;;;;10.35;100.00;102501.19;5221211;28;20514;-75
2021/10/07 03:43:35;;;;;;;24.25;7.20;;;;;;;10.28;100.00;102507.16;5221846;28;20021;-75
2021/10/07 03:46:05;;;;;;;30.02;6.78;;;;;;;10.17;100.00;102510.69;5221807;28;20055;-75
2021/10/07 03:48:36;;;;;;;28.00;7.18;;;;;;;10.07;100.00;102507.03;5221325;28;20074;-73
2021/10/07 03:51:06;;;;;;;26.33;6.55;;;;;;;9.95;100.00;102508.88;5221560;28;20029;-74
2021/10/07 03:53:37;;;;;;;26.05;7.18;;;;;;;9.85;100.00;102510.56;5221701;28;20026;-74
2021/10/07 03:56:08;;;;;;;23.60;6.20;;;;;;;9.76;100.00;102511.28;5221585;28;20521;-75
2021/10/07 03:58:38;;;;;;;26.23;6.95;;;;;;;9.69;100.00;102507.38;5221543;28;20230;-73
2021/10/07 04:01:09;;;;;;;24.77;7.22;;;;;;;9.61;100.00;102502.63;5220904;28;20081;-75
2021/10/07 04:03:39;;;;;;;34.13;7.65;;;;;;;9.56;100.00;102516.38;5220988;28;20112;-75
2021/10/07 04:06:10;;;;;;;23.42;7.13;;;;;;;9.46;100.00;102512.69;5221588;28;20108;-74
2021/10/07 04:08:41;;;;;;;22.55;8.13;;;;;;;9.39;100.00;102515.94;5221439;28;20082;-73
2021/10/07 04:11:11;;;;;;;29.95;8.50;;;;;;;9.33;100.00;102518.13;5221072;28;20118;-73
2021/10/07 04:13:42;;;;;;;28.02;9.02;;;;;;;9.28;100.00;102523.00;5221571;28;20033;-74
2021/10/07 04:16:13;;;;;;;22.70;9.85;;;;;;;9.24;100.00;102531.41;5221087;28;20524;-74
2021/10/07 04:18:44;;;;;;;32.83;9.48;;;;;;;9.21;100.00;102526.25;5207982;28;20024;-75
2021/10/07 04:21:16;;;;;;;26.30;8.30;;;;;;;9.14;100.00;102533.06;5221356;28;20379;-74
2021/10/07 04:23:47;;;;;;;27.92;8.48;;;;;;;9.08;100.00;102531.69;5221242;28;20104;-74
2021/10/07 04:26:17;;;;;;;26.70;7.85;;;;;;;9.01;100.00;102533.13;5221199;28;20029;-74
2021/10/07 04:28:48;;;;;;;223.27;15.82;;;;;;;8.94;100.00;102534.56;5221421;28;20490;-73
2021/10/07 04:31:18;;;;;;;165.48;14.15;;;;;;;8.88;100.00;102537.66;5220970;28;20028;-75
2021/10/07 04:33:49;;;;;;;30.35;8.25;;;;;;;8.83;100.00;102538.00;5225325;28;20378;-73
2021/10/07 04:36:19;;;;;;;26.88;6.63;;;;;;;8.80;100.00;102549.81;5224480;28;20108;-75
2021/10/07 04:38:50;;;;;;;160.65;10.63;;;;;;;8.74;100.00;102549.41;5223062;28;20033;-75
2021/10/07 04:41:21;;;;;;;111.32;7.95;;;;;;;8.64;100.00;102540.38;5223444;28;20029;-75
2021/10/07 04:43:51;;;;;;;67.88;8.50;;;;;;;8.54;100.00;102535.69;5224494;28;20079;-75
2021/10/07 04:46:22;;;;;;;14.77;6.40;;;;;;;8.52;100.00;102542.94;5224410;28;20093;-74
2021/10/07 04:48:54;;;;;;;23.33;7.10;;;;;;;8.50;100.00;102552.91;5223945;28;20037;-74
2021/10/07 04:51:24;;;;;;;17.73;6.60;;;;;;;8.45;100.00;102548.88;5224943;28;20025;-73
2021/10/07 04:53:55;;;;;;;24.73;8.00;;;;;;;8.39;100.00;102547.50;5224462;28;20106;-74
2021/10/07 04:56:25;;;;;;;27.15;9.65;;;;;;;8.35;100.00;102547.78;5223253;28;20509;-74
2021/10/07 04:58:56;;;;;;;29.00;8.00;;;;;;;8.27;100.00;102551.00;5224341;28;20070;-75
2021/10/07 05:01:26;;;;;;;30.45;7.43;;;;;;;8.20;100.00;102555.94;5224260;28;20486;-74
2021/10/07 05:03:57;;;;;;;20.05;8.00;;;;;;;8.15;100.00;102567.91;5224557;28;20025;-73
2021/10/07 05:06:27;;;;;;;21.67;8.57;;;;;;;8.08;100.00;102562.13;5224101;28;20078;-75
2021/10/07 05:08:58;;;;;;;67.88;10.35;;;;;;;8.05;100.00;102573.06;5224032;28;20035;-74
2021/10/07 05:11:29;;;;;;;45.47;7.40;;;;;;;8.01;100.00;102568.88;5224222;28;20107;-76
2021/10/07 05:13:59;;;;;;;19.23;5.07;;;;;;;7.98;100.00;102574.44;5223991;28;20028;-75
2021/10/07 05:16:30;;;;;;;26.90;7.43;;;;;;;7.92;100.00;102575.72;5222777;28;20052;-75
2021/10/07 05:19:00;;;;;;;37.13;8.20;;;;;;;7.85;100.00;102577.13;5224100;28;20035;-74
2021/10/07 05:21:31;;;;;;;28.83;8.85;;;;;;;7.79;100.00;102577.56;5223811;28;20021;-75
2021/10/07 05:24:01;;;;;;;27.63;8.18;;;;;;;7.72;100.00;102581.59;5224143;28;20481;-75
2021/10/07 05:26:32;;;;;;;21.45;8.20;;;;;;;7.66;100.00;102582.03;5223115;28;20209;-75
2021/10/07 05:29:02;;;;;;;32.50;12.73;;;;;;;7.62;100.00;102585.84;5223546;28;20083;-75
2021/10/07 05:31:33;;;;;;;30.38;10.15;;;;;;;7.59;100.00;102583.41;5223486;28;20448;-75
2021/10/07 05:34:04;;;;;;;37.50;10.45;;;;;;;7.56;100.00;102587.13;5223760;28;20029;-76
2021/10/07 05:36:34;;;;;;;25.70;9.45;;;;;;;7.53;100.00;102582.00;5223585;28;20059;-76
2021/10/07 05:39:05;;;;;;;20.60;9.63;;;;;;;7.53;100.00;102587.34;5221912;28;20523;-75
2021/10/07 05:41:35;;;;;;;35.42;11.63;;;;;;;7.49;100.00;102589.38;5223011;28;20074;-76
2021/10/07 05:44:09;;;;;;;23.85;11.40;;;;;;;7.45;100.00;102595.88;5222037;28;20028;-75
2021/10/07 05:46:39;;;;;;;26.88;9.43;;;;;;;7.40;100.00;102598.00;5223179;28;20021;-74
2021/10/07 05:49:10;;;;;;;14.57;7.72;;;;;;;7.37;100.00;102602.69;5222749;28;20386;-73
2021/10/07 05:51:41;;;;;;;91.35;13.48;;;;;;;7.34;100.00;102594.91;5223629;28;20021;-73
2021/10/07 05:54:12;;;;;;;32.85;14.02;;;;;;;7.32;100.00;102592.31;5223220;28;20033;-73
2021/10/07 05:56:42;;;;;;;32.78;14.52;;;;;;;7.33;100.00;102593.16;5223106;28;20029;-72
2021/10/07 05:59:13;;;;;;;27.13;13.30;;;;;;;7.35;100.00;102597.44;5223341;28;20020;-73
2021/10/07 06:01:43;;;;;;;25.38;12.77;;;;;;;7.40;100.00;102608.69;5223150;28;20435;-73
2021/10/07 06:04:14;;;;;;;26.80;12.75;;;;;;;7.45;100.00;102600.38;5222978;28;20150;-73
2021/10/07 06:06:45;;;;;;;29.40;12.10;;;;;;;7.49;100.00;102610.75;5223000;28;20048;-73
2021/10/07 06:09:15;;;;;;;23.08;9.30;;;;;;;7.57;100.00;102606.69;5222641;28;20166;-73
2021/10/07 06:11:46;;;;;;;32.47;11.10;;;;;;;7.61;100.00;102614.38;5222697;28;20052;-73
2021/10/07 06:14:17;;;;;;;26.05;9.90;;;;;;;7.58;100.00;102614.63;5222624;28;20386;-73
2021/10/07 06:16:50;;;;;;;16.17;8.35;;;;;;;7.55;100.00;102616.63;5222448;28;20033;-72
2021/10/07 06:19:24;;;;;;;16.27;8.43;;;;;;;7.53;100.00;102622.94;5222323;28;20028;-73
2021/10/07 06:21:55;;;;;;;20.85;8.73;;;;;;;7.57;100.00;102620.03;5222684;28;20020;-73
2021/10/07 06:24:25;;;;;;;21.17;8.88;;;;;;;7.63;100.00;102619.63;5222778;28;20174;-73
2021/10/07 06:26:56;;;;;;;23.20;9.00;;;;;;;7.66;100.00;102622.94;5222811;28;20035;-73
2021/10/07 06:29:27;;;;;;;16.25;8.55;;;;;;;7.71;100.00;102625.31;5222035;28;20130;-73
2021/10/07 06:31:57;;;;;;;38.50;19.42;;;;;;;7.73;100.00;102620.69;5222518;28;20402;-73
2021/10/07 06:34:28;;;;;;;19.70;8.02;;;;;;;7.76;100.00;102633.88;5222613;28;20029;-73
2021/10/07 06:36:58;;;;;;;123.75;11.50;;;;;;;7.83;100.00;102634.28;5222159;28;20055;-72
2021/10/07 06:39:29;;;;;;;21.95;7.65;;;;;;;7.94;100.00;102634.44;5221554;28;20394;-73
2021/10/07 06:41:59;;;;;;;13.55;7.32;;;;;;;8.12;100.00;102640.31;5217777;28;20129;-73
2021/10/07 06:44:30;;;;;;;23.45;10.80;;;;;;;8.35;100.00;102642.25;5216125;28;20513;-73
2021/10/07 06:47:01;;;;;;;22.63;9.15;;;;;;;8.66;100.00;102643.63;5219920;28;20021;-73
2021/10/07 06:49:31;;;;;;;23.77;9.00;;;;;;;8.94;100.00;102653.19;5220208;28;20051;-73
2021/10/07 06:52:03;;;;;;;21.15;10.32;;;;;;;9.11;100.00;102651.09;5219743;28;20063;-73
2021/10/07 06:54:33;;;;;;;29.65;10.82;;;;;;;9.55;100.00;102655.81;5217283;28;20025;-73
2021/10/07 06:57:04;;;;;;;29.27;9.90;;;;;;;9.98;100.00;102656.06;5219637;28;20029;-73
2021/10/07 06:59:35;;;;;;;18.20;8.68;;;;;;;10.35;100.00;102658.63;5219266;28;20359;-73
2021/10/07 07:02:05;;;;;;;19.60;8.63;;;;;;;10.51;100.00;102661.78;5218831;28;20064;-72
2021/10/07 07:04:36;;;;;;;21.50;9.07;;;;;;;10.62;100.00;102671.66;5219233;28;20040;-73
2021/10/07 07:07:06;;;;;;;24.45;9.63;;;;;;;11.17;100.00;102669.91;5219690;28;20075;-73
2021/10/07 07:09:37;;;;;;;17.88;8.80;;;;;;;11.54;100.00;102670.38;5219314;28;20104;-73
2021/10/07 07:12:08;;;;;;;23.23;8.38;;;;;;;11.64;100.00;102675.84;5218213;28;20025;-73
2021/10/07 07:14:38;;;;;;;22.25;8.45;;;;;;;11.82;100.00;102679.72;5218646;28;20029;-73
2021/10/07 07:17:09;;;;;;;18.58;7.65;;;;;;;11.48;100.00;102678.09;5219381;28;20031;-73
2021/10/07 07:19:39;;;;;;;17.15;6.78;;;;;;;11.18;100.00;102678.81;5219169;28;20029;-72
2021/10/07 07:22:11;;;;;;;21.13;9.50;;;;;;;10.99;100.00;102679.44;5219473;28;20400;-73
2021/10/07 07:24:42;;;;;;;23.15;10.60;;;;;;;11.18;100.00;102676.13;5218959;28;20025;-73
2021/10/07 07:27:14;;;;;;;22.80;10.95;;;;;;;11.68;100.00;102674.59;5219361;28;20048;-73
2021/10/07 07:29:45;;;;;;;16.25;7.93;;;;;;;12.30;100.00;102672.94;5219266;28;20025;-73
2021/10/07 07:32:16;;;;;;;23.67;8.50;;;;;;;12.38;100.00;102675.81;5219932;28;20028;-73
2021/10/07 07:34:47;;;;;;;15.98;9.05;;;;;;;12.51;100.00;102679.16;5219371;28;20025;-73
2021/10/07 07:37:18;;;;;;;19.65;9.23;;;;;;;12.49;100.00;102678.41;5219587;28;20025;-73
2021/10/07 07:39:48;;;;;;;27.15;9.75;;;;;;;12.18;100.00;102689.16;5218675;28;20065;-72
2021/10/07 07:42:20;;;;;;;34.17;10.63;;;;;;;11.78;100.00;102698.88;5219240;28;20056;-73
2021/10/07 07:44:50;;;;;;;21.35;9.52;;;;;;;11.58;100.00;102696.03;5219326;28;20027;-73
2021/10/07 07:47:21;;;;;;;30.10;15.52;;;;;;;11.50;100.00;102706.59;5219347;28;20029;-72
2021/10/07 07:49:52;;;;;;;23.55;11.52;;;;;;;11.39;100.00;102709.28;5218676;28;20024;-73
2021/10/07 07:52:23;;;;;;;23.30;11.75;;;;;;;11.35;100.00;102711.38;5234349;28;20031;-72
2021/10/07 07:54:54;;;;;;;23.92;11.25;;;;;;;11.42;100.00;102722.47;5218772;28;20064;-72
2021/10/07 07:57:24;;;;;;;22.05;11.95;;;;;;;11.39;100.00;102723.56;5218723;28;20115;-72
2021/10/07 07:59:55;;;;;;;26.58;12.27;;;;;;;11.35;100.00;102722.13;5198153;28;20025;-71
2021/10/07 08:02:25;;;;;;;24.73;11.70;;;;;;;11.42;100.00;102730.53;5211093;28;20067;-73
2021/10/07 08:04:56;;;;;;;25.25;12.40;;;;;;;11.46;100.00;102731.16;5218873;28;20043;-72
2021/10/07 08:07:27;;;;;;;34.65;14.18;;;;;;;11.47;100.00;102736.38;5222748;28;20021;-71
2021/10/07 08:09:58;;;;;;;36.28;17.83;;;;;;;11.50;100.00;102732.59;5222789;28;20304;-72
2021/10/07 08:12:33;;;;;;;33.70;16.55;;;;;;;11.54;100.00;102737.56;5223457;28;20033;-72
2021/10/07 08:15:06;;;;;;;31.48;19.30;;;;;;;11.60;100.00;102737.09;5222739;28;20394;-72
2021/10/07 08:17:38;;;;;;;31.92;15.98;;;;;;;11.67;100.00;102740.13;5223208;28;20103;-73
2021/10/07 08:20:11;;;;;;;23.40;13.48;;;;;;;11.79;100.00;102740.91;5222641;28;20035;-73
2021/10/07 08:22:44;;;;;;;26.20;14.25;;;;;;;12.01;100.00;102742.72;5223048;28;20032;-73
2021/10/07 08:25:17;;;;;;;36.15;16.10;;;;;;;12.24;100.00;102744.28;5222348;28;20025;-72
2021/10/07 08:27:47;;;;;;;28.42;15.30;;;;;;;12.48;100.00;102743.16;5222709;28;20049;-72
2021/10/07 08:30:18;;;;;;;23.50;13.95;;;;;;;12.47;100.00;102745.00;5222142;28;20520;-72
2021/10/07 08:32:49;;;;;;;27.60;13.77;;;;;;;12.50;100.00;102747.44;5222966;28;20566;-73
2021/10/07 08:35:19;;;;;;;33.55;13.35;;;;;;;12.56;100.00;102743.38;5222561;28;20370;-72
2021/10/07 08:37:50;;;;;;;27.60;13.32;;;;;;;12.65;100.00;102748.81;5222673;28;20077;-73
2021/10/07 08:40:20;;;;;;;32.80;13.15;;;;;;;12.70;100.00;102745.69;5221665;28;20033;-73
2021/10/07 08:42:51;;;;;;;25.70;12.48;;;;;;;12.71;100.00;102744.72;5221917;28;20029;-72
2021/10/07 08:45:21;;;;;;;26.42;13.23;;;;;;;12.85;100.00;102741.69;5222292;28;20029;-72
2021/10/07 08:47:54;;;;;;;30.50;14.30;;;;;;;13.03;100.00;102746.41;5222926;28;20481;-73
2021/10/07 08:50:25;;;;;;;35.47;17.30;;;;;;;13.10;100.00;102753.84;5221736;28;20029;-73
2021/10/07 08:52:55;;;;;;;27.80;13.90;;;;;;;13.02;100.00;102752.78;5221045;28;20025;-73
2021/10/07 08:55:26;;;;;;;29.55;14.23;;;;;;;13.06;100.00;102756.94;5222347;28;20021;-72
2021/10/07 08:57:56;;;;;;;34.10;14.82;;;;;;;13.05;100.00;102748.00;5221312;28;20086;-73
2021/10/07 09:00:27;;;;;;;26.08;13.45;;;;;;;13.21;100.00;102761.84;5221765;28;20113;-72
2021/10/07 09:03:16;;;;;;;22.23;12.23;;;;;;;13.31;100.00;102764.56;5222339;28;20052;-72
2021/10/07 09:05:48;;;;;;;27.17;11.38;;;;;;;13.42;100.00;102758.19;5222464;28;20018;-73
2021/10/07 09:08:18;;;;;;;25.48;12.43;;;;;;;13.35;100.00;102765.97;5222654;28;20483;-73
2021/10/07 09:10:55;;;;;;;27.02;12.98;;;;;;;13.41;100.00;102765.44;5222044;28;20083;-73
2021/10/07 09:13:26;;;;;;;28.25;14.40;;;;;;;13.40;100.00;102765.56;5221890;28;20119;-73
2021/10/07 09:15:59;;;;;;;33.47;13.15;;;;;;;13.41;100.00;102764.59;5221920;28;20032;-73
2021/10/07 09:18:31;;;;;;;23.58;12.25;;;;;;;13.60;100.00;102758.34;5221470;28;20025;-72
2021/10/07 09:21:01;;;;;;;33.75;14.25;;;;;;;13.60;100.00;102755.66;5222245;28;20082;-73
2021/10/07 09:23:35;;;;;;;32.53;13.73;;;;;;;13.68;100.00;102756.66;5222507;28;20017;-73
2021/10/07 09:26:11;;;;;;;26.48;13.70;;;;;;;13.73;100.00;102754.41;5222341;28;20025;-72
2021/10/07 09:28:57;;;;;;;27.27;13.43;;;;;;;14.01;100.00;102751.88;5222583;28;20025;-72
2021/10/07 09:31:30;;;;;;;29.88;13.23;;;;;;;14.12;100.00;102756.28;5221464;28;20552;-73
2021/10/07 09:34:04;;;;;;;26.10;12.88;;;;;;;14.28;100.00;102743.03;5229931;28;20095;-72
2021/10/07 09:36:35;;;;;;;21.60;11.55;;;;;;;14.36;100.00;102745.03;5223582;28;20033;-71
2021/10/07 09:39:07;;;;;;;23.75;12.63;;;;;;;14.41;100.00;102748.97;5231236;28;20039;-73
2021/10/07 09:41:38;;;;;;;24.88;11.90;;;;;;;14.58;100.00;102755.50;5225007;28;20445;-72
2021/10/07 09:44:08;;;;;;;26.13;11.18;;;;;;;14.75;100.00;102757.44;5222841;28;20142;-73
2021/10/07 09:46:49;;;;;;;27.45;11.73;;;;;;;14.77;100.00;102760.84;5230539;28;20025;-72
2021/10/07 09:49:32;;;;;;;21.83;11.57;;;;;;;14.79;100.00;102755.28;5232937;28;20232;-72
2021/10/07 09:52:02;;;;;;;25.90;11.88;;;;;;;14.69;100.00;102757.19;5222960;28;20033;-72
2021/10/07 09:54:37;;;;;;;26.67;12.38;;;;;;;14.59;100.00;102759.91;5227705;28;20037;-72
2021/10/07 09:57:08;;;;;;;24.75;12.07;;;;;;;14.57;100.00;102758.38;5225625;28;20021;-73
2021/10/07 09:59:55;;;;;;;25.55;12.80;;;;;;;14.72;100.00;102765.00;5222945;28;20044;-72
2021/10/07 10:02:26;;;;;;;48.05;25.83;;;;;;;14.74;100.00;102765.69;5221589;28;20025;-72
2021/10/07 10:04:57;;;;;;;24.33;13.27;;;;;;;14.84;100.00;102763.81;5221068;28;20478;-72
2021/10/07 10:07:29;;;;;;;23.48;9.90;;;;;;;15.01;100.00;102770.31;5222093;28;20025;-72
2021/10/07 10:10:01;;;;;;;20.00;10.00;;;;;;;14.96;100.00;102761.75;5222280;28;20113;-72
2021/10/07 10:12:32;;;;;;;26.83;10.68;;;;;;;14.91;100.00;102767.63;5234113;28;20032;-72
2021/10/07 10:15:04;;;;;;;19.23;11.02;;;;;;;14.82;100.00;102771.22;5228346;28;20021;-72
2021/10/07 10:17:35;;;;;;;29.38;11.55;;;;;;;14.81;100.00;102774.94;5225450;28;20063;-72
2021/10/07 10:20:20;;;;;;;21.42;10.65;;;;;;;14.77;100.00;102773.50;5227938;28;20079;-72
2021/10/07 10:22:56;;;;;;;32.30;11.73;;;;;;;14.67;100.00;102770.00;5235190;28;20055;-73
2021/10/07 10:25:29;;;;;;;21.77;10.13;;;;;;;14.75;100.00;102776.34;5226513;28;20027;-72
2021/10/07 10:28:04;;;;;;;20.88;9.80;;;;;;;14.90;100.00;102771.31;5225734;28;20299;-73
2021/10/07 10:30:46;;;;;;;21.70;9.73;;;;;;;15.02;100.00;102764.75;5220411;28;20052;-72
2021/10/07 10:33:29;;;;;;;19.17;9.88;;;;;;;15.06;100.00;102765.31;5223989;28;20512;-72
2021/10/07 10:36:00;;;;;;;26.35;11.35;;;;;;;14.98;100.00;102776.84;5222544;28;20478;-72
2021/10/07 10:38:39;;;;;;;24.00;11.38;;;;;;;14.91;100.00;102769.47;5244114;28;20036;-72
2021/10/07 10:41:10;;;;;;;23.33;11.25;;;;;;;15.14;100.00;102770.78;5219809;28;20025;-73
2021/10/07 10:43:41;;;;;;;26.10;11.02;;;;;;;15.16;100.00;102766.09;5220855;28;20031;-72
2021/10/07 10:46:12;;;;;;;24.90;10.77;;;;;;;15.29;100.00;102780.09;5223554;28;20070;-73
2021/10/07 10:48:44;;;;;;;27.20;10.57;;;;;;;15.24;100.00;102777.00;5222798;28;20028;-72
2021/10/07 10:51:16;;;;;;;22.30;9.57;;;;;;;15.37;100.00;102776.66;5222048;28;20032;-73
2021/10/07 10:53:50;;;;;;;26.25;11.82;;;;;;;15.30;100.00;102775.53;5225454;28;20048;-73
2021/10/07 10:56:21;;;;;;;22.27;10.30;;;;;;;15.29;100.00;102776.56;5221924;28;20052;-73
2021/10/07 10:58:53;;;;;;;22.77;10.27;;;;;;;15.24;100.00;102787.81;5229879;28;20021;-73
2021/10/07 11:01:24;;;;;;;23.92;11.20;;;;;;;15.24;100.00;102782.41;5226137;28;20174;-73
2021/10/07 11:04:07;;;;;;;27.38;11.45;;;;;;;15.29;100.00;102787.38;5229479;28;20037;-73
2021/10/07 11:07:15;;;;;;;28.05;12.65;;;;;;;15.49;100.00;102785.41;5227200;28;20036;-73
2021/10/07 11:09:55;;;;;;;45.15;21.02;;;;;;;15.71;100.00;102785.03;5230353;28;20494;-72
2021/10/07 11:12:32;;;;;;;24.88;15.23;;;;;;;15.82;100.00;102786.66;5239859;28;20119;-73
2021/10/07 11:15:06;;;;;;;17.33;8.60;;;;;;;16.00;100.00;102781.22;5226693;28;20028;-72
2021/10/07 11:17:45;;;;;;;24.50;10.25;;;;;;;15.72;100.00;102769.66;5231667;28;20028;-73
2021/10/07 11:20:25;;;;;;;24.83;11.25;;;;;;;15.50;100.00;102776.28;5226261;28;20031;-72
2021/10/07 11:23:13;;;;;;;24.60;10.68;;;;;;;15.65;100.00;102782.06;5226151;28;20373;-73
2021/10/07 11:25:50;;;;;;;24.08;8.95;;;;;;;15.99;100.00;102787.66;5232466;28;20060;-73
2021/10/07 11:28:35;;;;;;;18.00;8.50;;;;;;;16.36;100.00;102786.63;5224239;28;20476;-73
2021/10/07 11:31:10;;;;;;;17.10;7.25;;;;;;;16.77;100.00;102790.50;5223310;28;20039;-73
2021/10/07 11:33:43;;;;;;;17.80;8.73;;;;;;;16.57;100.00;102789.84;5220454;28;20040;-72
2021/10/07 11:36:16;;;;;;;23.88;9.48;;;;;;;16.70;100.00;102784.84;5227595;28;20028;-73
2021/10/07 11:38:48;;;;;;;17.48;8.43;;;;;;;16.99;100.00;102789.09;5233436;28;20519;-73